Weather reports worldwide

Advertisment
Dunstaffnage, United Kingdom (99006): temperature & dewpoint: 22.02.2017 14:00:00 - 28.02.2017 14:00:00 (GMT)Dunstaffnage, United Kingdom (99006): temperature -20cm: 22.02.2017 14:00:00 - 28.02.2017 14:00:00 (GMT)Dunstaffnage, United Kingdom (99006): wind speed & gusts: 22.02.2017 14:00:00 - 28.02.2017 14:00:00 (GMT)Dunstaffnage, United Kingdom (99006): wind direction: 22.02.2017 14:00:00 - 28.02.2017 14:00:00 (GMT)Dunstaffnage, United Kingdom (99006): precipitation: 22.02.2017 14:00:00 - 28.02.2017 14:00:00 (GMT)
Date & Time tt [°C] td [°C] tt -20cm [°C] ff [km/h] ff [kn] fx [km/h] fx [kn] dd rr [mm]
28.02.2017 14:00:00 7,1 -0,1 - 15 8 - - N 0,0
28.02.2017 13:00:00 7,1 1,4 - 9 5 - - NE 0,0
28.02.2017 12:00:00 6,2 2,0 - 15 8 - - ENE 0,0
28.02.2017 11:00:00 5,4 1,6 - 15 8 - - ENE 0,0
28.02.2017 10:00:00 3,6 2,0 - 11 6 - - E 0,0
28.02.2017 09:00:00 2,8 1,4 4,7 22 12 - - E 0,0
28.02.2017 08:00:00 2,0 1,1 - 13 7 - - E 0,0
28.02.2017 07:00:00 2,1 1,3 - 15 8 - - E 0,8
28.02.2017 06:00:00 1,9 1,3 - 16 9 - - E 0,0
28.02.2017 05:00:00 0,9 0,2 - 13 7 - - E 0,0
28.02.2017 04:00:00 0,2 -0,5 - - - - - - 0,0
28.02.2017 03:00:00 0,4 -0,1 - 11 6 - - NE 0,0
28.02.2017 02:00:00 -0,1 -0,3 - 2 1 - - ESE 0,0
28.02.2017 01:00:00 -0,4 -0,6 - 2 1 - - S 0,0
28.02.2017 00:00:00 -0,6 -0,9 - 4 2 - - S 0,0
27.02.2017 23:00:00 -0,8 -1,1 - 2 1 - - SSW 0,0
27.02.2017 22:00:00 -0,3 -0,8 - 0 0 - - N 0,0
27.02.2017 21:00:00 -0,2 -1,0 - 4 2 - - SSW 0,0
27.02.2017 20:00:00 1,4 0,1 - 4 2 - - NNW 0,0
27.02.2017 19:00:00 2,6 0,4 - 8 4 - - SSW 0,0
27.02.2017 18:00:00 3,3 1,0 - 8 4 - - S 0,0
27.02.2017 17:00:00 4,8 1,9 - 8 4 - - SE 0,2
27.02.2017 16:00:00 5,8 1,2 - 5 3 - - W 0,0
27.02.2017 15:00:00 6,4 0,5 - 9 5 - - W 0,0
27.02.2017 14:00:00 6,7 0,9 - 8 4 - - S 0,0
27.02.2017 13:00:00 6,4 0,2 - 8 4 - - ESE 0,0
27.02.2017 12:00:00 6,1 0,7 - 13 7 - - SE 0,0
27.02.2017 11:00:00 5,1 1,0 - 11 6 - - ESE 0,0
27.02.2017 10:00:00 4,3 1,5 - 11 6 - - ESE 0,0
27.02.2017 09:00:00 2,8 0,7 5,7 11 6 - - ESE 0,0
27.02.2017 08:00:00 2,1 0,3 - 13 7 - - SE 0,0
27.02.2017 07:00:00 2,4 0,2 - 15 8 - - SSE 0,0
27.02.2017 06:00:00 2,4 0,5 - 13 7 - - SE 0,2
27.02.2017 05:00:00 2,3 0,6 - 9 5 - - S 0,2
27.02.2017 04:00:00 2,5 1,1 - 11 6 - - SSE 0,8
27.02.2017 03:00:00 2,9 0,8 - 13 7 - - S 0,2
27.02.2017 02:00:00 2,1 1,3 - 21 11 - - SW 0,6
27.02.2017 01:00:00 2,2 1,1 - 24 13 59 32 WSW 0,2
27.02.2017 00:00:00 3,0 0,4 - 15 8 - - SSW 0,0
26.02.2017 23:00:00 3,3 2,0 - 16 9 52 28 S 1,8
26.02.2017 22:00:00 5,0 1,7 - 15 8 - - SSW 0,0
26.02.2017 21:00:00 5,2 2,2 - 26 14 - - SW 0,2
26.02.2017 20:00:00 5,4 3,1 - 21 11 57 31 SW 0,2
26.02.2017 19:00:00 5,6 2,9 - 21 11 59 32 SW 0,0
26.02.2017 18:00:00 5,5 3,9 - 37 20 61 33 WSW 0,6
26.02.2017 17:00:00 6,7 3,5 - 28 15 46 25 SW 0,0
26.02.2017 16:00:00 7,2 5,3 - 31 17 46 25 SW 0,4
26.02.2017 15:00:00 7,0 6,0 - 18 10 - - SW 4,0
26.02.2017 14:00:00 7,5 6,3 - 11 6 - - SSE 2,0
26.02.2017 13:00:00 7,5 6,0 - 8 4 - - SSE 1,4
26.02.2017 12:00:00 7,7 6,7 - 13 7 - - SSE 1,0
26.02.2017 11:00:00 7,9 6,1 - 15 8 - - SSE 0,0
26.02.2017 10:00:00 7,8 6,2 - 13 7 - - S 0,0
26.02.2017 09:00:00 7,5 5,9 6,2 16 9 50 27 SSW 0,4
26.02.2017 08:00:00 7,5 5,7 - 24 13 - - S 0,4
26.02.2017 07:00:00 6,7 5,2 - 24 13 - - SSE 2,8
26.02.2017 06:00:00 6,0 4,3 - 18 10 - - SSE 2,0
26.02.2017 05:00:00 6,0 3,6 - 11 6 - - SE 0,0
26.02.2017 04:00:00 6,4 3,6 - 13 7 - - SSE 0,0
26.02.2017 03:00:00 6,5 3,9 - 18 10 - - SSE 0,0
26.02.2017 02:00:00 6,6 4,0 - 16 9 - - SSE 0,0
26.02.2017 01:00:00 6,5 4,1 - 18 10 - - SSE 0,0
26.02.2017 00:00:00 6,7 4,1 - 15 8 - - SSE 0,0
25.02.2017 23:00:00 6,4 4,3 - 16 9 - - SSE 0,0
25.02.2017 22:00:00 6,1 4,8 - 2 1 - - NW 0,2
25.02.2017 21:00:00 6,5 4,0 - 5 3 - - SSW 0,0
25.02.2017 20:00:00 6,4 4,0 - 8 4 - - S 0,0
25.02.2017 19:00:00 6,3 3,6 - 11 6 - - SSW 0,0
25.02.2017 18:00:00 6,8 3,8 - 11 6 - - SW 0,0
25.02.2017 17:00:00 8,3 2,9 - 15 8 - - WSW 0,0
25.02.2017 16:00:00 9,4 3,1 - 18 10 - - WSW 0,0
25.02.2017 15:00:00 9,1 5,0 - 11 6 - - WSW 0,0
25.02.2017 14:00:00 9,1 4,9 - 26 14 - - W 0,0
25.02.2017 13:00:00 10,1 6,0 - 18 10 - - WSW 0,0
25.02.2017 12:00:00 9,4 7,1 - 15 8 - - W 0,0
25.02.2017 11:00:00 8,7 7,4 - 29 16 48 26 W 0,2
25.02.2017 10:00:00 9,5 8,8 - 31 17 70 38 SW 0,8
25.02.2017 09:00:00 9,5 8,4 5,9 26 14 57 31 SW 0,4
25.02.2017 08:00:00 9,5 8,0 - 22 12 52 28 S 1,4
25.02.2017 07:00:00 8,6 7,7 - 24 13 54 29 S 4,2
25.02.2017 06:00:00 8,6 7,5 - 29 16 57 31 S 3,4
25.02.2017 05:00:00 8,3 7,3 - 24 13 50 27 S 1,0
25.02.2017 04:00:00 8,5 7,3 - 24 13 - - S 0,4
25.02.2017 03:00:00 8,3 7,3 - 15 8 - - SSE 1,6
25.02.2017 02:00:00 8,2 7,4 - 22 12 46 25 S 1,8
25.02.2017 01:00:00 7,9 7,2 - 22 12 - - S 1,8
25.02.2017 00:00:00 7,6 6,7 - 22 12 - - S 0,8
24.02.2017 23:00:00 7,3 6,3 - 16 9 - - SSE 0,4
24.02.2017 22:00:00 6,8 5,9 - 13 7 - - SE 0,4
24.02.2017 21:00:00 6,1 5,1 - 13 7 - - E 0,2
24.02.2017 20:00:00 5,4 4,2 - 9 5 - - SE 0,2
24.02.2017 19:00:00 4,9 3,7 - 9 5 - - SSE 0,4
24.02.2017 18:00:00 4,2 2,9 - 21 11 - - SSE 2,4
24.02.2017 17:00:00 4,1 2,8 - 16 9 - - SSE 2,6
24.02.2017 16:00:00 5,1 3,8 - 11 6 - - SSE 0,8
24.02.2017 15:00:00 5,5 3,8 - 11 6 - - S 0,8
24.02.2017 14:00:00 5,9 2,9 - 11 6 - - S 0,0
24.02.2017 13:00:00 5,8 3,2 - 13 7 - - S 0,4
24.02.2017 12:00:00 5,7 3,2 - 9 5 - - SE 0,0
24.02.2017 11:00:00 5,4 2,8 - 11 6 - - S 0,0
24.02.2017 10:00:00 5,6 2,5 - 5 3 - - S 0,0
24.02.2017 09:00:00 4,6 2,8 5,4 9 5 - - SW 0,0
24.02.2017 08:00:00 3,7 2,1 - 11 6 - - SSW 0,0
24.02.2017 07:00:00 4,1 2,5 - 9 5 - - SW 0,0
24.02.2017 06:00:00 3,5 1,7 - 8 4 46 25 SSE 0,0
24.02.2017 05:00:00 5,0 2,2 - 22 12 - - WNW 0,0
24.02.2017 04:00:00 4,7 2,5 - 18 10 - - W 0,4
24.02.2017 03:00:00 4,7 1,6 - 22 12 - - W 0,6
24.02.2017 02:00:00 4,6 1,7 - 24 13 - - W 0,2
24.02.2017 01:00:00 4,8 1,6 - 26 14 48 26 WNW 0,4
24.02.2017 00:00:00 4,4 2,4 - 22 12 52 28 WNW 0,4
23.02.2017 23:00:00 4,3 2,5 - 24 13 - - W 0,0
23.02.2017 22:00:00 3,9 2,2 - 22 12 50 27 W 1,0
23.02.2017 21:00:00 4,0 2,7 - 35 19 48 26 W 0,2
23.02.2017 20:00:00 4,2 2,9 - 13 7 - - W 0,4
23.02.2017 19:00:00 3,9 2,9 - 13 7 - - WSW 0,2
23.02.2017 18:00:00 3,6 2,8 - 5 3 - - SW 0,4
23.02.2017 17:00:00 3,6 2,1 - 13 7 - - WNW 1,4
23.02.2017 16:00:00 5,5 2,9 - 16 9 - - W 0,0
23.02.2017 15:00:00 5,7 1,8 - 5 3 - - NW 0,2
23.02.2017 14:00:00 5,7 1,3 - 11 6 - - NNW 0,0
23.02.2017 13:00:00 5,3 1,6 - 13 7 - - NW 0,0
23.02.2017 12:00:00 5,0 2,0 - 16 9 - - NW 0,2
23.02.2017 11:00:00 4,0 2,0 - 18 10 - - NNW 0,2
23.02.2017 10:00:00 3,5 2,1 - 11 6 - - N 0,0
23.02.2017 09:00:00 2,7 1,8 5,7 15 8 - - N 0,4
23.02.2017 08:00:00 1,8 1,3 - 21 11 52 28 N 2,8
23.02.2017 07:00:00 2,6 1,8 - 34 18 52 28 NNE 3,6
23.02.2017 06:00:00 2,8 1,7 - 35 19 48 26 NNE 1,6
23.02.2017 05:00:00 3,1 2,1 - 24 13 - - NE 2,4
23.02.2017 04:00:00 3,2 2,2 - 26 14 - - NE 3,6
23.02.2017 03:00:00 3,4 2,3 - 29 16 - - ENE 2,8
23.02.2017 02:00:00 4,0 3,0 - 16 9 - - E 1,6
23.02.2017 01:00:00 4,4 3,2 - 13 7 - - E 0,6
23.02.2017 00:00:00 4,4 3,0 - 13 7 - - E 0,0
22.02.2017 23:00:00 4,4 2,8 - 13 7 - - E 0,0
22.02.2017 22:00:00 4,3 2,8 - 9 5 - - ESE 0,0
22.02.2017 21:00:00 4,2 3,4 - 4 2 - - SSW 0,0
22.02.2017 20:00:00 3,9 2,7 - 5 3 - - SSW 0,0
22.02.2017 19:00:00 4,6 3,4 - 2 1 - - E 0,0
22.02.2017 18:00:00 6,1 3,8 - 15 8 - - W 0,0
22.02.2017 17:00:00 5,4 3,3 - 18 10 48 26 WSW 1,4
22.02.2017 16:00:00 5,9 4,3 - 24 13 52 28 WSW 0,6
22.02.2017 15:00:00 6,9 4,3 - 26 14 - - W 0,2
22.02.2017 14:00:00 6,6 3,9 - 34 18 68 37 WSW 0,4

tt = temperature
td = dewpoint
tt -20cm = temperature -20cm
ff = wind speed
fx = gusts
dd = wind direction
rr = precipitation

Next stations